Terminal Aerodrome Forecast
Issued by NWS

Home | Current Version | Previous Version | Graphics & Text | Print | Product List | Glossary On
Versions: 1 2 3 4 5 6 7 8 9 10 11 12 13 14 15 16 17 18
777
FTUS43 KIWX 111140
TAFSBN
TAF
KSBN 111140Z 1112/1212 29008KT P6SM -SHSN SCT030 OVC045
      TEMPO 1112/1116 2SM -SHSN OVC030
     FM112200 25005KT P6SM SCT070 BKN250=

USA.gov is the U.S. government's official web portal to all federal, state and local government web resources and services.